sensor_id;sensor_type;location;lat;lon;timestamp;P1;P4;P2;P0;N10;N4;N25;N1;N05;TS
58856;SPS30;44629;50.962;6.138;2022-12-24T00:00:29;11.43;10.82;7.77;3.78;30.87;30.74;29.88;25.70;17.43;0.97
58856;SPS30;44629;50.962;6.138;2022-12-24T00:02:54;12.46;11.80;8.48;4.15;33.93;33.79;32.87;28.33;19.30;0.96
58856;SPS30;44629;50.962;6.138;2022-12-24T00:05:20;11.08;10.48;7.50;3.61;29.50;29.37;28.54;24.46;16.46;0.99
58856;SPS30;44629;50.962;6.138;2022-12-24T00:07:46;11.71;11.08;7.90;3.77;30.82;30.68;29.79;25.45;17.02;1.00
58856;SPS30;44629;50.962;6.138;2022-12-24T00:10:11;12.26;11.59;8.21;3.81;31.22;31.07;30.13;25.51;16.74;1.02
58856;SPS30;44629;50.962;6.138;2022-12-24T00:12:37;12.15;11.48;8.15;3.82;31.31;31.16;30.24;25.69;16.97;1.01
58856;SPS30;44629;50.962;6.138;2022-12-24T00:15:04;13.61;12.87;9.16;4.34;35.50;35.34;34.31;29.24;19.46;1.00
58856;SPS30;44629;50.962;6.138;2022-12-24T00:17:31;12.36;11.70;8.36;4.01;32.82;32.68;31.75;27.18;18.27;0.98
58856;SPS30;44629;50.962;6.138;2022-12-24T00:19:57;11.06;10.47;7.48;3.58;29.33;29.20;28.37;24.28;16.30;0.99
58856;SPS30;44629;50.962;6.138;2022-12-24T00:22:22;12.81;12.11;8.57;3.98;32.62;32.47;31.48;26.65;17.48;1.02
58856;SPS30;44629;50.962;6.138;2022-12-24T00:24:48;12.49;11.80;8.35;3.86;31.66;31.51;30.55;25.83;16.90;1.01
58856;SPS30;44629;50.962;6.138;2022-12-24T00:27:13;11.77;11.12;7.85;3.60;29.54;29.39;28.48;24.01;15.61;1.01
58856;SPS30;44629;50.962;6.138;2022-12-24T00:29:39;12.98;12.26;8.67;4.00;32.79;32.64;31.64;26.73;17.46;1.00
58856;SPS30;44629;50.962;6.138;2022-12-24T00:32:05;9.52;8.99;6.38;2.99;24.45;24.34;23.61;20.04;13.22;1.00
58856;SPS30;44629;50.962;6.138;2022-12-24T00:34:37;11.07;10.45;7.40;3.44;28.15;28.02;27.17;23.00;15.08;1.02
58856;SPS30;44629;50.962;6.138;2022-12-24T00:37:04;11.30;10.67;7.53;3.45;28.25;28.12;27.24;22.95;14.88;1.03
58856;SPS30;44629;50.962;6.138;2022-12-24T00:39:32;11.26;10.64;7.51;3.44;28.22;28.09;27.22;22.94;14.90;1.02
58856;SPS30;44629;50.962;6.138;2022-12-24T00:41:58;8.60;8.13;5.80;2.75;22.52;22.42;21.77;18.58;12.39;1.00
58856;SPS30;44629;50.962;6.138;2022-12-24T00:44:23;10.73;10.16;7.28;3.52;28.79;28.66;27.86;23.92;16.16;1.00
58856;SPS30;44629;50.962;6.138;2022-12-24T00:46:49;8.56;8.10;5.80;2.80;22.86;22.76;22.12;18.97;12.79;0.99
58856;SPS30;44629;50.962;6.138;2022-12-24T00:49:15;10.74;10.17;7.34;3.63;29.65;29.52;28.73;24.85;17.05;0.97
58856;SPS30;44629;50.962;6.138;2022-12-24T00:51:40;9.57;9.07;6.52;3.19;26.05;25.94;25.23;21.74;14.80;0.96
58856;SPS30;44629;50.962;6.138;2022-12-24T00:54:06;10.47;9.91;7.11;3.45;28.23;28.11;27.33;23.49;15.92;0.96
58856;SPS30;44629;50.962;6.138;2022-12-24T00:56:32;11.88;11.23;7.98;3.76;30.79;30.65;29.74;25.31;16.78;0.99
58856;SPS30;44629;50.962;6.138;2022-12-24T00:58:58;10.06;9.50;6.73;3.12;25.60;25.48;24.71;20.92;13.72;1.00
58856;SPS30;44629;50.962;6.138;2022-12-24T01:01:24;11.27;10.67;7.65;3.71;30.35;30.22;29.38;25.25;17.10;0.96
58856;SPS30;44629;50.962;6.138;2022-12-24T01:03:51;9.67;9.15;6.55;3.16;25.85;25.73;25.01;21.45;14.47;0.97
58856;SPS30;44629;50.962;6.138;2022-12-24T01:06:37;9.69;9.18;6.63;3.29;26.89;26.78;26.07;22.57;15.52;0.94
58856;SPS30;44629;50.962;6.138;2022-12-24T01:09:03;9.56;9.06;6.56;3.28;26.80;26.69;26.00;22.57;15.60;0.93
58856;SPS30;44629;50.962;6.138;2022-12-24T01:11:28;9.88;9.35;6.68;3.20;26.21;26.09;25.35;21.70;14.58;0.96
58856;SPS30;44629;50.962;6.138;2022-12-24T01:13:54;10.94;10.34;7.34;3.42;28.06;27.92;27.09;22.98;15.14;0.99
58856;SPS30;44629;50.962;6.138;2022-12-24T01:16:20;10.80;10.21;7.24;3.37;27.63;27.50;26.68;22.61;14.88;1.00
58856;SPS30;44629;50.962;6.138;2022-12-24T01:18:46;10.41;9.85;7.04;3.38;27.68;27.56;26.78;22.93;15.42;1.00
58856;SPS30;44629;50.962;6.138;2022-12-24T01:21:12;7.94;7.53;5.47;2.76;22.52;22.42;21.85;19.02;13.22;0.97
58856;SPS30;44629;50.962;6.138;2022-12-24T01:23:39;9.41;8.91;6.41;3.14;25.65;25.54;24.84;21.42;14.60;0.99
58856;SPS30;44629;50.962;6.138;2022-12-24T01:26:05;8.98;8.50;6.15;3.06;25.01;24.90;24.25;21.01;14.48;0.97
58856;SPS30;44629;50.962;6.138;2022-12-24T01:28:32;9.84;9.33;6.77;3.41;27.83;27.72;27.01;23.50;16.31;0.94
58856;SPS30;44629;50.962;6.138;2022-12-24T01:30:58;10.16;9.63;6.98;3.49;28.52;28.41;27.67;24.02;16.61;0.94
58856;SPS30;44629;50.962;6.138;2022-12-24T01:33:26;8.91;8.45;6.17;3.16;25.76;25.66;25.02;21.88;15.35;0.93
58856;SPS30;44629;50.962;6.138;2022-12-24T01:35:53;9.12;8.64;6.25;3.11;25.39;25.28;24.62;21.33;14.69;0.96
58856;SPS30;44629;50.962;6.138;2022-12-24T01:38:19;9.24;8.76;6.35;3.18;25.98;25.87;25.20;21.89;15.14;0.96
58856;SPS30;44629;50.962;6.138;2022-12-24T01:40:45;9.64;9.13;6.58;3.24;26.46;26.35;25.64;22.14;15.15;0.97
58856;SPS30;44629;50.962;6.138;2022-12-24T01:43:31;9.29;8.80;6.36;3.17;25.86;25.75;25.07;21.72;14.96;0.97
58856;SPS30;44629;50.962;6.138;2022-12-24T01:46:02;10.05;9.52;6.88;3.42;27.93;27.82;27.08;23.46;16.15;0.95
58856;SPS30;44629;50.962;6.138;2022-12-24T01:48:57;9.55;9.04;6.50;3.18;26.00;25.89;25.19;21.71;14.79;0.97
58856;SPS30;44629;50.962;6.138;2022-12-24T01:51:41;10.21;9.66;6.93;3.37;27.55;27.43;26.67;22.93;15.55;0.98
58856;SPS30;44629;50.962;6.138;2022-12-24T01:54:33;10.70;10.13;7.24;3.48;28.46;28.34;27.54;23.59;15.86;0.98
58856;SPS30;44629;50.962;6.138;2022-12-24T01:57:10;10.19;9.64;6.89;3.31;27.05;26.93;26.16;22.40;15.05;0.97
58856;SPS30;44629;50.962;6.138;2022-12-24T01:59:45;10.93;10.34;7.40;3.56;29.13;29.00;28.18;24.15;16.26;0.97
58856;SPS30;44629;50.962;6.138;2022-12-24T02:02:16;9.36;8.89;6.51;3.39;27.62;27.52;26.86;23.60;16.70;0.93
58856;SPS30;44629;50.962;6.138;2022-12-24T02:04:45;10.25;9.71;7.06;3.57;29.13;29.01;28.27;24.63;17.14;0.94
58856;SPS30;44629;50.962;6.138;2022-12-24T02:07:41;9.03;8.57;6.25;3.21;26.17;26.07;25.43;22.25;15.62;0.93
58856;SPS30;44629;50.962;6.138;2022-12-24T02:10:08;9.49;8.99;6.50;3.24;26.47;26.36;25.67;22.26;15.35;0.95
58856;SPS30;44629;50.962;6.138;2022-12-24T02:12:36;9.33;8.84;6.38;3.16;25.85;25.74;25.05;21.68;14.90;0.96
58856;SPS30;44629;50.962;6.138;2022-12-24T02:15:04;8.57;8.12;5.88;2.93;23.94;23.84;23.22;20.14;13.89;0.96
58856;SPS30;44629;50.962;6.138;2022-12-24T02:26:31;10.38;9.84;7.16;3.64;29.72;29.60;28.86;25.18;17.58;0.95
58856;SPS30;44629;50.962;6.138;2022-12-24T02:35:32;8.37;7.99;6.10;3.56;28.89;28.80;28.27;25.65;19.27;0.84
58856;SPS30;44629;50.962;6.138;2022-12-24T02:39:10;6.91;6.61;5.09;3.04;24.61;24.54;24.12;22.01;16.70;0.82
58856;SPS30;44629;50.962;6.138;2022-12-24T02:41:38;7.98;7.61;5.75;3.28;26.62;26.54;26.02;23.46;17.43;0.85
58856;SPS30;44629;50.962;6.138;2022-12-24T02:44:28;7.66;7.31;5.55;3.20;25.96;25.88;25.39;22.96;17.15;0.84
58856;SPS30;44629;50.962;6.138;2022-12-24T02:47:06;7.39;7.06;5.41;3.18;25.80;25.72;25.26;22.97;17.32;0.84
58856;SPS30;44629;50.962;6.138;2022-12-24T02:49:34;7.53;7.19;5.46;3.15;25.56;25.48;25.00;22.61;16.90;0.85
58856;SPS30;44629;50.962;6.138;2022-12-24T02:52:01;6.62;6.34;4.92;3.00;24.27;24.21;23.81;21.84;16.72;0.81
58856;SPS30;44629;50.962;6.138;2022-12-24T02:54:28;5.70;5.47;4.33;2.76;22.31;22.25;21.93;20.34;15.86;0.79
58856;SPS30;44629;50.962;6.138;2022-12-24T03:11:21;4.32;4.15;3.32;2.17;17.52;17.48;17.25;16.08;12.66;0.78
58856;SPS30;44629;50.962;6.138;2022-12-24T03:13:47;4.27;4.11;3.33;2.24;18.08;18.05;17.82;16.73;13.30;0.75
58856;SPS30;44629;50.962;6.138;2022-12-24T03:16:20;3.60;3.47;2.79;1.85;14.95;14.92;14.73;13.78;10.91;0.74
58856;SPS30;44629;50.962;6.138;2022-12-24T03:18:50;4.08;3.93;3.15;2.07;16.70;16.66;16.44;15.35;12.11;0.75
58856;SPS30;44629;50.962;6.138;2022-12-24T03:21:25;3.53;3.39;2.69;1.73;13.99;13.96;13.76;12.79;10.01;0.77
58856;SPS30;44629;50.962;6.138;2022-12-24T03:23:57;3.68;3.54;2.83;1.85;14.91;14.87;14.67;13.68;10.76;0.75
58856;SPS30;44629;50.962;6.138;2022-12-24T03:26:23;3.24;3.11;2.46;1.56;12.63;12.60;12.42;11.51;8.96;0.77
58856;SPS30;44629;50.962;6.138;2022-12-24T03:28:52;2.85;2.73;2.16;1.37;11.11;11.08;10.92;10.12;7.89;0.78
58856;SPS30;44629;50.962;6.138;2022-12-24T03:31:18;3.18;3.05;2.39;1.50;12.12;12.09;11.91;11.00;8.52;0.79
58856;SPS30;44629;50.962;6.138;2022-12-24T03:33:45;3.49;3.34;2.59;1.57;12.75;12.71;12.50;11.46;8.76;0.80
58856;SPS30;44629;50.962;6.138;2022-12-24T03:36:12;3.70;3.54;2.76;1.69;13.68;13.65;13.43;12.33;9.47;0.79
58856;SPS30;44629;50.962;6.138;2022-12-24T03:38:38;3.34;3.20;2.49;1.53;12.37;12.34;12.14;11.16;8.57;0.79
58856;SPS30;44629;50.962;6.138;2022-12-24T03:41:04;3.65;3.50;2.72;1.67;13.49;13.45;13.24;12.16;9.33;0.80
58856;SPS30;44629;50.962;6.138;2022-12-24T03:43:31;3.89;3.73;2.91;1.80;14.58;14.54;14.31;13.18;10.15;0.80
58856;SPS30;44629;50.962;6.138;2022-12-24T03:45:57;3.65;3.50;2.74;1.70;13.79;13.76;13.54;12.48;9.64;0.80
58856;SPS30;44629;50.962;6.138;2022-12-24T03:48:23;3.79;3.64;2.87;1.81;14.64;14.60;14.39;13.31;10.34;0.79
58856;SPS30;44629;50.962;6.138;2022-12-24T03:50:48;3.53;3.39;2.70;1.74;14.07;14.04;13.84;12.87;10.09;0.78
58856;SPS30;44629;50.962;6.138;2022-12-24T03:53:17;2.90;2.79;2.23;1.46;11.78;11.76;11.60;10.82;8.52;0.78
58856;SPS30;44629;50.962;6.138;2022-12-24T03:55:46;2.76;2.66;2.16;1.45;11.71;11.68;11.54;10.83;8.62;0.77
58856;SPS30;44629;50.962;6.138;2022-12-24T03:58:11;2.64;2.55;2.09;1.43;11.56;11.53;11.40;10.75;8.61;0.77
58856;SPS30;44629;50.962;6.138;2022-12-24T04:00:37;2.88;2.77;2.25;1.51;12.21;12.18;12.03;11.30;8.98;0.78
58856;SPS30;44629;50.962;6.138;2022-12-24T04:03:03;3.42;3.30;2.68;1.81;14.62;14.59;14.42;13.55;10.80;0.76
58856;SPS30;44629;50.962;6.138;2022-12-24T04:05:28;2.89;2.78;2.22;1.45;11.72;11.70;11.54;10.76;8.47;0.77
58856;SPS30;44629;50.962;6.138;2022-12-24T04:07:54;3.14;3.02;2.41;1.58;12.74;12.72;12.55;11.70;9.21;0.77
58856;SPS30;44629;50.962;6.138;2022-12-24T04:10:19;3.64;3.49;2.77;1.77;14.32;14.29;14.09;13.07;10.21;0.78
58856;SPS30;44629;50.962;6.138;2022-12-24T04:12:45;4.07;3.91;3.12;2.02;16.30;16.26;16.04;14.93;11.71;0.78
58856;SPS30;44629;50.962;6.138;2022-12-24T04:15:11;4.34;4.17;3.29;2.08;16.85;16.81;16.57;15.34;11.94;0.82
58856;SPS30;44629;50.962;6.138;2022-12-24T04:17:36;3.96;3.80;3.04;1.98;15.97;15.94;15.72;14.65;11.52;0.79
58856;SPS30;44629;50.962;6.138;2022-12-24T04:20:02;3.79;3.65;2.93;1.94;15.69;15.66;15.45;14.46;11.43;0.76
58856;SPS30;44629;50.962;6.138;2022-12-24T04:22:28;3.65;3.52;2.87;1.96;15.78;15.74;15.56;14.65;11.70;0.74
58856;SPS30;44629;50.962;6.138;2022-12-24T04:24:54;4.12;3.98;3.28;2.28;18.40;18.36;18.16;17.17;13.82;0.73
58856;SPS30;44629;50.962;6.138;2022-12-24T04:27:19;4.77;4.62;3.85;2.73;22.02;21.99;21.77;20.67;16.74;0.72
58856;SPS30;44629;50.962;6.138;2022-12-24T04:29:45;4.43;4.29;3.59;2.58;20.73;20.70;20.50;19.50;15.84;0.71
58856;SPS30;44629;50.962;6.138;2022-12-24T04:32:11;4.63;4.48;3.73;2.65;21.38;21.34;21.13;20.06;16.25;0.72
58856;SPS30;44629;50.962;6.138;2022-12-24T04:34:36;5.39;5.21;4.31;3.03;24.42;24.38;24.12;22.85;18.45;0.73
58856;SPS30;44629;50.962;6.138;2022-12-24T04:37:02;5.37;5.20;4.33;3.08;24.84;24.80;24.55;23.31;18.90;0.72
58856;SPS30;44629;50.962;6.138;2022-12-24T04:39:28;5.27;5.11;4.30;3.12;25.09;25.05;24.82;23.67;19.30;0.70
58856;SPS30;44629;50.962;6.138;2022-12-24T04:41:54;4.85;4.70;3.94;2.85;22.91;22.87;22.66;21.58;17.56;0.70
58856;SPS30;44629;50.962;6.138;2022-12-24T04:44:19;5.19;5.02;4.15;2.91;23.43;23.39;23.14;21.91;17.67;0.73
58856;SPS30;44629;50.962;6.138;2022-12-24T04:46:45;6.23;6.00;4.85;3.25;26.22;26.17;25.84;24.23;19.24;0.76
58856;SPS30;44629;50.962;6.138;2022-12-24T04:49:11;5.36;5.18;4.26;2.95;23.79;23.75;23.49;22.19;17.83;0.73
58856;SPS30;44629;50.962;6.138;2022-12-24T04:51:36;5.88;5.69;4.73;3.35;26.98;26.94;26.66;25.30;20.47;0.73
58856;SPS30;44629;50.962;6.138;2022-12-24T04:54:02;6.15;5.95;4.90;3.42;27.58;27.53;27.23;25.76;20.74;0.75
58856;SPS30;44629;50.962;6.138;2022-12-24T04:56:29;5.89;5.69;4.69;3.26;26.30;26.25;25.96;24.55;19.75;0.74
58856;SPS30;44629;50.962;6.138;2022-12-24T04:58:57;5.81;5.61;4.59;3.16;25.46;25.41;25.12;23.69;18.98;0.74
58856;SPS30;44629;50.962;6.138;2022-12-24T05:01:26;5.82;5.62;4.61;3.19;25.67;25.62;25.34;23.92;19.19;0.74
58856;SPS30;44629;50.962;6.138;2022-12-24T05:03:55;6.34;6.12;5.05;3.52;28.37;28.32;28.01;26.49;21.32;0.74
58856;SPS30;44629;50.962;6.138;2022-12-24T05:06:21;6.86;6.63;5.49;3.86;31.09;31.03;30.71;29.09;23.49;0.71
58856;SPS30;44629;50.962;6.138;2022-12-24T05:08:54;6.73;6.53;5.50;4.01;32.26;32.21;31.91;30.45;24.86;0.69
58856;SPS30;44629;50.962;6.138;2022-12-24T05:11:22;6.66;6.47;5.52;4.12;33.09;33.04;32.77;31.40;25.81;0.68
58856;SPS30;44629;50.962;6.138;2022-12-24T05:13:48;6.88;6.66;5.59;4.04;32.52;32.47;32.16;30.64;24.95;0.70
58856;SPS30;44629;50.962;6.138;2022-12-24T05:16:14;6.31;6.13;5.22;3.88;31.22;31.18;30.92;29.62;24.32;0.67
58856;SPS30;44629;50.962;6.138;2022-12-24T05:18:42;6.33;6.17;5.35;4.11;33.01;32.97;32.74;31.55;26.16;0.67
58856;SPS30;44629;50.962;6.138;2022-12-24T05:21:09;7.68;7.47;6.42;4.83;38.84;38.79;38.49;36.96;30.47;0.70
58856;SPS30;44629;50.962;6.138;2022-12-24T05:23:40;6.17;6.00;5.15;3.88;31.19;31.14;30.90;29.67;24.46;0.68
58856;SPS30;44629;50.962;6.138;2022-12-24T05:29:00;5.71;5.56;4.80;3.65;29.29;29.25;29.03;27.93;23.08;0.71
58856;SPS30;44629;50.962;6.138;2022-12-24T05:31:28;5.48;5.32;4.55;3.41;27.38;27.34;27.12;26.01;21.40;0.71
58856;SPS30;44629;50.962;6.138;2022-12-24T05:33:57;6.04;5.86;4.98;3.68;29.62;29.57;29.32;28.06;23.00;0.72
58856;SPS30;44629;50.962;6.138;2022-12-24T05:36:23;7.26;7.03;5.85;4.15;33.46;33.40;33.06;31.39;25.42;0.73
58856;SPS30;44629;50.962;6.138;2022-12-24T05:38:49;6.79;6.57;5.44;3.83;30.85;30.80;30.48;28.88;23.33;0.74
58856;SPS30;44629;50.962;6.138;2022-12-24T05:41:16;8.01;7.71;6.17;4.04;32.66;32.59;32.15;30.01;23.64;0.77
58856;SPS30;44629;50.962;6.138;2022-12-24T05:43:44;8.92;8.57;6.83;4.42;35.72;35.64;35.15;32.71;25.66;0.75
58856;SPS30;44629;50.962;6.138;2022-12-24T05:46:11;7.59;7.31;5.88;3.90;31.50;31.44;31.03;29.04;22.98;0.75
58856;SPS30;44629;50.962;6.138;2022-12-24T05:48:40;7.22;6.96;5.65;3.81;30.76;30.70;30.33;28.49;22.68;0.75
58856;SPS30;44629;50.962;6.138;2022-12-24T05:51:06;9.69;9.35;7.69;5.32;42.90;42.82;42.35;39.99;32.12;0.73
58856;SPS30;44629;50.962;6.138;2022-12-24T05:53:34;7.50;7.25;6.03;4.28;34.45;34.39;34.04;32.31;26.15;0.72
58856;SPS30;44629;50.962;6.138;2022-12-24T05:56:02;7.72;7.46;6.16;4.31;34.71;34.65;34.28;32.44;26.14;0.73
58856;SPS30;44629;50.962;6.138;2022-12-24T05:58:34;7.55;7.28;5.97;4.11;33.14;33.08;32.70;30.85;24.74;0.74
58856;SPS30;44629;50.962;6.138;2022-12-24T06:01:01;8.63;8.29;6.61;4.30;34.70;34.62;34.15;31.80;24.97;0.76
58856;SPS30;44629;50.962;6.138;2022-12-24T06:03:29;8.91;8.57;6.86;4.49;36.28;36.20;35.72;33.32;26.25;0.75
58856;SPS30;44629;50.962;6.138;2022-12-24T06:06:03;7.71;7.42;5.97;3.96;31.93;31.87;31.46;29.43;23.28;0.77
58856;SPS30;44629;50.962;6.138;2022-12-24T06:08:38;7.68;7.38;5.87;3.79;30.66;30.59;30.16;28.05;21.98;0.78
58856;SPS30;44629;50.962;6.138;2022-12-24T06:11:06;8.63;8.29;6.56;4.19;33.86;33.78;33.29;30.88;24.09;0.79
58856;SPS30;44629;50.962;6.138;2022-12-24T06:13:35;7.66;7.34;5.78;3.64;29.44;29.37;28.93;26.75;20.76;0.80
58856;SPS30;44629;50.962;6.138;2022-12-24T06:16:02;7.37;7.07;5.57;3.52;28.43;28.36;27.94;25.85;20.08;0.80
58856;SPS30;44629;50.962;6.138;2022-12-24T06:18:31;8.40;8.06;6.41;4.12;33.32;33.24;32.77;30.46;23.84;0.78
58856;SPS30;44629;50.962;6.138;2022-12-24T06:20:59;7.34;7.04;5.59;3.59;28.99;28.92;28.51;26.48;20.70;0.79
58856;SPS30;44629;50.962;6.138;2022-12-24T06:23:27;8.62;8.26;6.44;3.97;32.13;32.04;31.53;29.01;22.32;0.81
58856;SPS30;44629;50.962;6.138;2022-12-24T06:25:56;9.71;9.28;7.11;4.19;33.96;33.87;33.26;30.25;22.83;0.85
58856;SPS30;44629;50.962;6.138;2022-12-24T06:28:25;8.92;8.54;6.66;4.10;33.22;33.14;32.61;29.99;23.07;0.82
58856;SPS30;44629;50.962;6.138;2022-12-24T06:30:55;8.07;7.74;6.04;3.73;30.22;30.15;29.67;27.31;21.04;0.81
58856;SPS30;44629;50.962;6.138;2022-12-24T06:33:20;8.75;8.37;6.46;3.88;31.40;31.31;30.78;28.13;21.40;0.82
58856;SPS30;44629;50.962;6.138;2022-12-24T06:35:46;9.59;9.16;7.03;4.17;33.77;33.67;33.07;30.13;22.78;0.83
58856;SPS30;44629;50.962;6.138;2022-12-24T06:38:12;9.63;9.21;7.11;4.27;34.61;34.51;33.92;31.01;23.60;0.82
58856;SPS30;44629;50.962;6.138;2022-12-24T06:40:40;9.94;9.50;7.31;4.35;35.23;35.13;34.52;31.48;23.86;0.81
58856;SPS30;44629;50.962;6.138;2022-12-24T06:43:09;9.30;8.90;6.87;4.13;33.45;33.36;32.79;29.98;22.82;0.81
58856;SPS30;44629;50.962;6.138;2022-12-24T06:45:36;9.45;9.04;7.03;4.30;34.81;34.72;34.16;31.36;24.05;0.80
58856;SPS30;44629;50.962;6.138;2022-12-24T06:48:02;9.19;8.81;6.91;4.30;34.83;34.74;34.20;31.55;24.39;0.80
58856;SPS30;44629;50.962;6.138;2022-12-24T06:50:28;9.74;9.31;7.18;4.29;34.78;34.68;34.08;31.12;23.64;0.83
58856;SPS30;44629;50.962;6.138;2022-12-24T06:52:54;8.01;7.67;5.94;3.60;29.16;29.08;28.59;26.19;20.01;0.82
58856;SPS30;44629;50.962;6.138;2022-12-24T06:55:20;8.82;8.45;6.62;4.13;33.38;33.30;32.78;30.24;23.36;0.80
58856;SPS30;44629;50.962;6.138;2022-12-24T06:57:46;12.33;11.83;9.30;5.85;47.28;47.16;46.45;42.93;33.29;0.80
58856;SPS30;44629;50.962;6.138;2022-12-24T07:00:11;15.60;15.01;12.04;7.93;64.00;63.86;63.02;58.87;46.45;0.78
58856;SPS30;44629;50.962;6.138;2022-12-24T07:02:39;9.69;9.40;7.98;5.88;47.32;47.25;46.84;44.80;36.70;0.74
58856;SPS30;44629;50.962;6.138;2022-12-24T07:05:07;7.79;7.51;6.12;4.15;33.49;33.43;33.03;31.06;24.79;0.78
58856;SPS30;44629;50.962;6.138;2022-12-24T07:07:37;8.65;8.29;6.48;4.02;32.49;32.41;31.90;29.39;22.66;0.85
58856;SPS30;44629;50.962;6.138;2022-12-24T07:10:10;9.57;9.16;7.08;4.27;34.58;34.49;33.90;31.02;23.64;0.84
58856;SPS30;44629;50.962;6.138;2022-12-24T07:12:39;9.01;8.62;6.66;4.02;32.54;32.45;31.90;29.18;22.24;0.83
58856;SPS30;44629;50.962;6.138;2022-12-24T07:15:05;9.79;9.37;7.29;4.45;36.03;35.94;35.35;32.45;24.87;0.79
58856;SPS30;44629;50.962;6.138;2022-12-24T07:17:31;7.46;7.14;5.56;3.41;27.61;27.54;27.09;24.89;19.11;0.79
58856;SPS30;44629;50.962;6.138;2022-12-24T07:19:57;8.88;8.49;6.54;3.90;31.62;31.53;30.98;28.27;21.46;0.81
58856;SPS30;44629;50.962;6.138;2022-12-24T07:22:22;9.87;9.43;7.20;4.22;34.21;34.11;33.49;30.42;22.89;0.83
58856;SPS30;44629;50.962;6.138;2022-12-24T07:24:48;8.58;8.19;6.27;3.69;29.92;29.83;29.29;26.63;20.08;0.81
58856;SPS30;44629;50.962;6.138;2022-12-24T07:27:14;8.87;8.48;6.54;3.92;31.76;31.67;31.12;28.43;21.62;0.81
58856;SPS30;44629;50.962;6.138;2022-12-24T07:29:40;9.60;9.16;6.96;4.00;32.50;32.40;31.78;28.74;21.45;0.82
58856;SPS30;44629;50.962;6.138;2022-12-24T07:32:06;9.26;8.85;6.82;4.08;33.06;32.97;32.40;29.59;22.47;0.79
58856;SPS30;44629;50.962;6.138;2022-12-24T07:34:31;7.44;7.14;5.61;3.52;28.44;28.37;27.94;25.81;19.99;0.76
58856;SPS30;44629;50.962;6.138;2022-12-24T07:36:57;8.57;8.20;6.39;3.92;31.76;31.68;31.17;28.65;22.01;0.79
58856;SPS30;44629;50.962;6.138;2022-12-24T07:39:23;10.65;10.18;7.81;4.62;37.44;37.33;36.66;33.38;25.23;0.83
58856;SPS30;44629;50.962;6.138;2022-12-24T07:41:48;10.85;10.36;7.93;4.66;37.82;37.71;37.03;33.66;25.37;0.84
58856;SPS30;44629;50.962;6.138;2022-12-24T07:44:14;10.05;9.59;7.30;4.23;34.31;34.21;33.56;30.40;22.76;0.84
58856;SPS30;44629;50.962;6.138;2022-12-24T07:46:41;10.50;10.02;7.61;4.38;35.54;35.43;34.75;31.42;23.45;0.84
58856;SPS30;44629;50.962;6.138;2022-12-24T07:49:07;10.72;10.23;7.75;4.43;35.99;35.88;35.19;31.76;23.64;0.84
58856;SPS30;44629;50.962;6.138;2022-12-24T07:51:34;8.71;8.31;6.29;3.60;29.21;29.12;28.56;25.77;19.18;0.84
58856;SPS30;44629;50.962;6.138;2022-12-24T07:54:00;11.83;11.30;8.68;5.14;41.63;41.51;40.77;37.13;28.08;0.84
58856;SPS30;44629;50.962;6.138;2022-12-24T07:56:26;9.48;9.08;7.09;4.36;35.33;35.24;34.67;31.89;24.53;0.80
58856;SPS30;44629;50.962;6.138;2022-12-24T07:58:51;8.64;8.26;6.38;3.83;31.07;30.98;30.46;27.84;21.20;0.81
58856;SPS30;44629;50.962;6.138;2022-12-24T08:01:17;8.97;8.57;6.57;3.87;31.34;31.25;30.69;27.91;21.05;0.83
58856;SPS30;44629;50.962;6.138;2022-12-24T08:03:43;8.89;8.50;6.52;3.85;31.21;31.12;30.56;27.82;21.02;0.83
58856;SPS30;44629;50.962;6.138;2022-12-24T08:06:09;8.76;8.38;6.46;3.86;31.30;31.21;30.67;28.01;21.27;0.84
58856;SPS30;44629;50.962;6.138;2022-12-24T08:08:36;9.64;9.24;7.24;4.52;36.53;36.44;35.88;33.10;25.58;0.81
58856;SPS30;44629;50.962;6.138;2022-12-24T08:11:03;9.97;9.55;7.46;4.62;37.37;37.28;36.69;33.78;26.03;0.80
58856;SPS30;44629;50.962;6.138;2022-12-24T08:13:30;9.15;8.78;6.89;4.31;34.85;34.76;34.23;31.60;24.45;0.79
58856;SPS30;44629;50.962;6.138;2022-12-24T08:15:57;8.75;8.43;6.83;4.58;36.96;36.89;36.43;34.18;27.16;0.75
58856;SPS30;44629;50.962;6.138;2022-12-24T08:18:23;8.77;8.46;6.92;4.75;38.27;38.19;37.76;35.59;28.49;0.74
58856;SPS30;44629;50.962;6.138;2022-12-24T08:20:50;8.12;7.85;6.45;4.48;36.09;36.02;35.63;33.66;27.05;0.74
58856;SPS30;44629;50.962;6.138;2022-12-24T08:23:16;11.12;10.74;8.86;6.18;49.79;49.70;49.16;46.50;37.44;0.74
58856;SPS30;44629;50.962;6.138;2022-12-24T08:25:43;9.65;9.29;7.48;4.96;40.02;39.93;39.42;36.88;29.18;0.78
58856;SPS30;44629;50.962;6.138;2022-12-24T08:28:11;10.67;10.28;8.33;5.59;45.13;45.03;44.48;41.73;33.17;0.77
58856;SPS30;44629;50.962;6.138;2022-12-24T08:30:40;8.16;7.88;6.48;4.48;36.13;36.07;35.67;33.68;27.05;0.75
58856;SPS30;44629;50.962;6.138;2022-12-24T08:33:06;8.97;8.62;6.91;4.53;36.60;36.52;36.04;33.64;26.52;0.78
58856;SPS30;44629;50.962;6.138;2022-12-24T08:35:32;8.20;7.90;6.38;4.26;34.39;34.32;33.89;31.76;25.19;0.77
58856;SPS30;44629;50.962;6.138;2022-12-24T08:37:58;8.58;8.26;6.65;4.40;35.51;35.44;34.98;32.72;25.88;0.78
58856;SPS30;44629;50.962;6.138;2022-12-24T08:40:24;8.54;8.23;6.66;4.46;36.01;35.94;35.49;33.29;26.44;0.77
58856;SPS30;44629;50.962;6.138;2022-12-24T08:42:49;9.74;9.36;7.44;4.80;38.76;38.67;38.13;35.45;27.76;0.78
58856;SPS30;44629;50.962;6.138;2022-12-24T08:45:15;9.68;9.29;7.33;4.63;37.45;37.36;36.80;34.06;26.47;0.77
58856;SPS30;44629;50.962;6.138;2022-12-24T08:47:43;8.88;8.51;6.65;4.12;33.32;33.24;32.71;30.13;23.22;0.80
58856;SPS30;44629;50.962;6.138;2022-12-24T08:50:08;10.01;9.59;7.53;4.71;38.10;38.00;37.42;34.54;26.73;0.81
58856;SPS30;44629;50.962;6.138;2022-12-24T08:52:35;9.44;9.08;7.25;4.72;38.16;38.08;37.56;35.01;27.52;0.79
58856;SPS30;44629;50.962;6.138;2022-12-24T08:55:00;7.36;7.10;5.80;3.96;31.96;31.90;31.53;29.70;23.75;0.75
58856;SPS30;44629;50.962;6.138;2022-12-24T08:57:26;8.91;8.58;6.95;4.66;37.62;37.55;37.08;34.79;27.65;0.77
58856;SPS30;44629;50.962;6.138;2022-12-24T08:59:53;9.52;9.13;7.21;4.56;36.87;36.79;36.24;33.55;26.09;0.79
58856;SPS30;44629;50.962;6.138;2022-12-24T09:02:19;8.25;7.90;6.19;3.85;31.17;31.09;30.61;28.23;21.80;0.79
58856;SPS30;44629;50.962;6.138;2022-12-24T09:04:45;7.27;6.98;5.52;3.53;28.51;28.44;28.03;26.00;20.29;0.76
58856;SPS30;44629;50.962;6.138;2022-12-24T09:07:10;7.84;7.54;6.06;4.00;32.30;32.23;31.81;29.73;23.49;0.76
58856;SPS30;44629;50.962;6.138;2022-12-24T09:09:36;7.75;7.46;5.96;3.89;31.46;31.39;30.97;28.88;22.72;0.79
58856;SPS30;44629;50.962;6.138;2022-12-24T09:12:03;10.97;10.48;8.03;4.73;38.33;38.22;37.53;34.14;25.75;0.85
58856;SPS30;44629;50.962;6.138;2022-12-24T09:14:30;9.59;9.18;7.12;4.32;34.98;34.89;34.31;31.44;24.04;0.83
58856;SPS30;44629;50.962;6.138;2022-12-24T09:16:56;8.83;8.47;6.69;4.24;34.26;34.18;33.67;31.18;24.26;0.79
58856;SPS30;44629;50.962;6.138;2022-12-24T09:19:21;8.52;8.16;6.34;3.87;31.35;31.26;30.75;28.23;21.63;0.82
58856;SPS30;44629;50.962;6.138;2022-12-24T09:21:47;16.17;15.52;12.27;7.81;63.11;62.96;62.05;57.51;44.81;0.80
58856;SPS30;44629;50.962;6.138;2022-12-24T09:24:13;8.40;8.15;6.93;5.12;41.18;41.12;40.77;39.01;31.98;0.70
58856;SPS30;44629;50.962;6.138;2022-12-24T09:26:39;7.31;7.11;6.08;4.54;36.54;36.48;36.19;34.71;28.55;0.70
58856;SPS30;44629;50.962;6.138;2022-12-24T09:29:05;8.88;8.57;6.99;4.78;38.52;38.45;38.00;35.79;28.61;0.76
58856;SPS30;44629;50.962;6.138;2022-12-24T09:31:34;9.05;8.71;7.05;4.73;38.17;38.09;37.62;35.28;28.03;0.77
58856;SPS30;44629;50.962;6.138;2022-12-24T09:34:00;9.71;9.35;7.51;4.96;40.02;39.94;39.42;36.84;29.11;0.78
58856;SPS30;44629;50.962;6.138;2022-12-24T09:36:25;8.29;8.00;6.53;4.46;35.96;35.89;35.48;33.41;26.71;0.77
58856;SPS30;44629;50.962;6.138;2022-12-24T09:38:51;8.66;8.34;6.76;4.53;36.58;36.51;36.06;33.83;26.88;0.79
58856;SPS30;44629;50.962;6.138;2022-12-24T09:41:26;8.56;8.26;6.71;4.54;36.60;36.53;36.09;33.92;27.03;0.76
58856;SPS30;44629;50.962;6.138;2022-12-24T09:44:31;8.29;8.00;6.54;4.49;36.16;36.09;35.68;33.62;26.92;0.73